createdAt,value
2019-05-06T00:00:04.726Z,101084.34
2019-05-06T00:05:30.546Z,101089.77
2019-05-06T00:10:55.089Z,101090.16
2019-05-06T00:16:19.935Z,101091.33
2019-05-06T00:21:44.349Z,101089.03
2019-05-06T00:27:15.278Z,101092.59
2019-05-06T00:32:39.448Z,101094.17
2019-05-06T00:38:04.483Z,101100.38
2019-05-06T00:43:29.846Z,101101.20
2019-05-06T00:48:55.065Z,101098.84
2019-05-06T00:54:21.572Z,101102.89
2019-05-06T00:59:45.409Z,101100.75
2019-05-06T01:05:10.511Z,101092.09
2019-05-06T01:10:35.358Z,101098.40
2019-05-06T01:15:59.646Z,101101.91
2019-05-06T01:21:24.455Z,101102.53
2019-05-06T01:26:48.936Z,101103.78
2019-05-06T01:32:13.996Z,101108.66
2019-05-06T01:37:39.923Z,101107.64
2019-05-06T01:43:08.321Z,101119.68
2019-05-06T01:48:47.805Z,101115.78
2019-05-06T01:54:14.213Z,101127.63
2019-05-06T01:59:37.513Z,101125.41
2019-05-06T02:05:04.498Z,101120.76
2019-05-06T02:10:28.632Z,101121.72
2019-05-06T02:15:54.751Z,101118.83
2019-05-06T02:21:38.365Z,101119.88
2019-05-06T02:27:04.361Z,101115.56
2019-05-06T02:32:36.089Z,101114.05
2019-05-06T02:38:00.074Z,101119.52
2019-05-06T02:43:23.770Z,101120.13
2019-05-06T02:49:07.392Z,101121.94
2019-05-06T02:54:34.531Z,101127.64
2019-05-06T02:59:57.099Z,101132.28
2019-05-06T03:05:23.706Z,101133.48
2019-05-06T03:10:47.191Z,101138.33
2019-05-06T03:16:14.134Z,101147.61
2019-05-06T03:22:03.149Z,101148.02
2019-05-06T03:27:26.510Z,101150.08
2019-05-06T03:33:27.404Z,101153.48
2019-05-06T03:38:16.487Z,101156.36
2019-05-06T03:43:43.353Z,101160.59
2019-05-06T03:49:06.813Z,101159.67
2019-05-06T03:54:34.290Z,101162.44
2019-05-06T04:00:00.113Z,101160.52
2019-05-06T04:05:24.619Z,101170.62
2019-05-06T04:10:53.800Z,101167.77
2019-05-06T04:16:23.154Z,101176.75
2019-05-06T04:21:58.599Z,101177.30
2019-05-06T04:27:33.518Z,101174.01
2019-05-06T04:32:58.669Z,101174.84
2019-05-06T04:38:23.984Z,101185.87
2019-05-06T04:43:48.390Z,101183.55
2019-05-06T04:49:15.016Z,101182.97
2019-05-06T04:54:39.660Z,101186.44
2019-05-06T05:00:04.578Z,101183.88
2019-05-06T05:05:32.846Z,101186.22
2019-05-06T05:11:03.405Z,101183.79
2019-05-06T05:16:33.181Z,101184.45
2019-05-06T05:22:06.011Z,101181.53
2019-05-06T05:27:32.918Z,101181.50
2019-05-06T05:32:57.947Z,101184.63
2019-05-06T05:38:22.907Z,101178.09
2019-05-06T05:44:02.294Z,101178.81
2019-05-06T05:49:45.974Z,101183.80
2019-05-06T05:55:12.059Z,101180.84
2019-05-06T06:00:36.896Z,101182.00
2019-05-06T06:06:03.031Z,101181.89
2019-05-06T06:11:32.868Z,101178.48
2019-05-06T06:17:15.316Z,101179.98
2019-05-06T06:22:39.294Z,101181.06
2019-05-06T06:28:03.453Z,101184.09
2019-05-06T06:33:28.315Z,101178.44
2019-05-06T06:39:07.629Z,101178.70
2019-05-06T06:44:33.760Z,101174.48
2019-05-06T06:49:57.785Z,101176.61
2019-05-06T06:55:22.848Z,101178.30
2019-05-06T07:00:57.329Z,101180.11
2019-05-06T07:06:39.307Z,101170.91
2019-05-06T07:12:03.734Z,101181.41
2019-05-06T07:17:28.847Z,101182.20
2019-05-06T07:22:53.508Z,101178.92
2019-05-06T07:28:17.172Z,101167.01
2019-05-06T07:33:42.961Z,101175.56
2019-05-06T07:39:08.007Z,101177.48
2019-05-06T07:45:06.129Z,101171.81
2019-05-06T07:50:26.284Z,101178.82
2019-05-06T07:55:52.481Z,101155.58
2019-05-06T08:01:16.644Z,101170.13
2019-05-06T08:06:42.750Z,101156.27
2019-05-06T08:12:06.641Z,101168.27
2019-05-06T08:17:35.259Z,101163.03
2019-05-06T08:23:07.185Z,101154.63
2019-05-06T08:28:40.477Z,101164.24
2019-05-06T08:33:57.820Z,101158.75
2019-05-06T08:39:22.060Z,101174.48
2019-05-06T08:44:47.627Z,101169.53
2019-05-06T08:50:23.366Z,101176.22
2019-05-06T08:55:47.795Z,101157.19
2019-05-06T09:01:13.662Z,101163.92
2019-05-06T09:06:37.673Z,101161.84
2019-05-06T09:12:02.920Z,101153.42
2019-05-06T09:17:27.538Z,101140.35
2019-05-06T09:22:52.236Z,101156.45
2019-05-06T09:28:26.566Z,101148.77
2019-05-06T09:34:05.002Z,101131.44
2019-05-06T09:39:29.107Z,101123.61
2019-05-06T09:44:54.429Z,101142.80
2019-05-06T09:50:46.730Z,101124.64
2019-05-06T09:56:22.969Z,101133.26
2019-05-06T10:01:46.224Z,101142.48
2019-05-06T10:07:11.920Z,101143.52
2019-05-06T10:12:37.172Z,101132.97
2019-05-06T10:18:08.754Z,101131.75
2019-05-06T10:23:32.867Z,101128.91
2019-05-06T10:29:15.088Z,101127.06
2019-05-06T10:34:39.086Z,101131.02
2019-05-06T10:40:15.280Z,101118.16
2019-05-06T10:45:39.703Z,101108.91
2019-05-06T10:51:17.221Z,101105.67
2019-05-06T10:57:06.132Z,101107.91
2019-05-06T11:02:47.995Z,101117.63
2019-05-06T11:08:11.471Z,101115.79
2019-05-06T11:13:36.400Z,101100.70
2019-05-06T11:19:02.186Z,101100.79
2019-05-06T11:24:26.436Z,101085.36
2019-05-06T11:29:53.070Z,101082.69
2019-05-06T11:35:25.452Z,101088.05
2019-05-06T11:40:49.724Z,101090.47
2019-05-06T11:46:13.424Z,101082.77
2019-05-06T11:51:38.050Z,101081.71
2019-05-06T11:57:04.199Z,101067.39
2019-05-06T12:02:28.829Z,101066.28
2019-05-06T12:08:01.884Z,101066.38
2019-05-06T12:13:18.452Z,101070.75
2019-05-06T12:18:43.685Z,101058.11
2019-05-06T12:24:07.533Z,101055.28
2019-05-06T12:29:32.392Z,101050.77
2019-05-06T12:34:57.830Z,101052.30
2019-05-06T12:40:22.363Z,101060.15
2019-05-06T12:45:47.489Z,101067.37
2019-05-06T12:51:12.099Z,101069.34
2019-05-06T12:56:36.843Z,101069.93
2019-05-06T13:02:02.723Z,101059.19
2019-05-06T13:07:37.472Z,101054.52
2019-05-06T13:13:05.528Z,101057.81
2019-05-06T13:18:32.150Z,101053.41
2019-05-06T13:24:02.388Z,101052.77
2019-05-06T13:29:28.942Z,101044.27
2019-05-06T13:34:52.755Z,101045.52
2019-05-06T13:40:17.779Z,101042.23
2019-05-06T13:45:43.256Z,101028.73
2019-05-06T13:51:12.422Z,101039.80
2019-05-06T13:56:36.137Z,101034.12
2019-05-06T14:02:08.652Z,101034.36
2019-05-06T14:07:34.694Z,101040.97
2019-05-06T14:12:59.196Z,101038.53
2019-05-06T14:18:23.712Z,101029.23
2019-05-06T14:23:47.386Z,101033.53
2019-05-06T14:29:23.553Z,101029.73
2019-05-06T14:34:47.876Z,101023.41
2019-05-06T14:40:16.661Z,101025.00
2019-05-06T14:45:42.311Z,101026.06
2019-05-06T14:51:06.233Z,101025.84
2019-05-06T14:56:42.975Z,101028.20
2019-05-06T15:02:07.769Z,101027.58
2019-05-06T15:07:33.031Z,101028.12
2019-05-06T15:12:57.788Z,101036.14
2019-05-06T15:18:22.461Z,101035.12
2019-05-06T15:23:47.064Z,101037.59
2019-05-06T15:29:12.648Z,101044.44
2019-05-06T15:35:08.043Z,101039.55
2019-05-06T15:40:36.393Z,101049.94
2019-05-06T15:45:58.537Z,101053.13
2019-05-06T15:51:34.442Z,101050.48
2019-05-06T15:56:58.510Z,101051.02
2019-05-06T16:02:23.347Z,101065.05
2019-05-06T16:07:48.207Z,101066.08
2019-05-06T16:13:13.027Z,101064.97
2019-05-06T16:18:36.721Z,101069.70
2019-05-06T16:24:09.135Z,101070.50
2019-05-06T16:29:35.628Z,101074.52
2019-05-06T16:34:59.723Z,101075.52
2019-05-06T16:40:23.964Z,101076.64
2019-05-06T16:45:48.474Z,101084.45
2019-05-06T16:51:12.720Z,101084.66
2019-05-06T16:56:44.703Z,101082.78
2019-05-06T17:02:14.386Z,101084.25
2019-05-06T17:07:39.038Z,101083.97
2019-05-06T17:13:03.151Z,101102.64
2019-05-06T17:18:27.798Z,101110.34
2019-05-06T17:23:52.560Z,101113.41
2019-05-06T17:29:24.151Z,101123.55
2019-05-06T17:34:52.722Z,101126.02
2019-05-06T17:40:18.176Z,101116.89
2019-05-06T17:46:01.791Z,101117.08
2019-05-06T17:51:42.638Z,101121.39
2019-05-06T17:57:07.561Z,101125.11
2019-05-06T18:02:32.630Z,101129.63
2019-05-06T18:07:57.267Z,101129.34
2019-05-06T18:13:21.972Z,101133.81
2019-05-06T18:18:46.631Z,101133.36
2019-05-06T18:24:12.934Z,101133.19
2019-05-06T18:29:37.323Z,101137.85
2019-05-06T18:35:02.623Z,101129.25
2019-05-06T18:40:27.123Z,101138.30
2019-05-06T18:45:53.015Z,101142.59
2019-05-06T18:51:16.743Z,101152.01
2019-05-06T18:56:42.754Z,101162.17
2019-05-06T19:02:06.406Z,101173.83
2019-05-06T19:07:33.275Z,101178.28
2019-05-06T19:12:57.036Z,101186.47
2019-05-06T19:18:22.468Z,101193.35
2019-05-06T19:23:47.417Z,101197.62
2019-05-06T19:29:12.259Z,101190.67
2019-05-06T19:34:36.716Z,101184.20
2019-05-06T19:40:02.698Z,101198.19
2019-05-06T19:45:26.061Z,101199.03
2019-05-06T19:50:52.224Z,101198.53
2019-05-06T19:56:16.716Z,101201.08
2019-05-06T20:01:42.781Z,101203.19
2019-05-06T20:07:13.343Z,101200.25
2019-05-06T20:12:40.653Z,101199.44
2019-05-06T20:18:05.301Z,101197.97
2019-05-06T20:23:30.304Z,101197.39
2019-05-06T20:28:54.811Z,101203.56
2019-05-06T20:34:19.703Z,101206.61
2019-05-06T20:39:44.356Z,101206.34
2019-05-06T20:45:09.115Z,101196.59
2019-05-06T20:50:33.122Z,101183.77
2019-05-06T20:55:56.894Z,101187.00
2019-05-06T21:01:21.944Z,101180.73
2019-05-06T21:06:46.144Z,101179.49
2019-05-06T21:12:11.162Z,101176.83
2019-05-06T21:17:35.043Z,101170.15
2019-05-06T21:23:02.333Z,101166.33
2019-05-06T21:28:26.048Z,101171.00
2019-05-06T21:33:52.208Z,101169.94
2019-05-06T21:39:16.034Z,101169.11
2019-05-06T21:44:40.199Z,101167.12
2019-05-06T21:50:05.604Z,101169.11
2019-05-06T21:55:29.485Z,101168.86
2019-05-06T22:01:02.357Z,101168.95
2019-05-06T22:06:28.873Z,101170.90
2019-05-06T22:11:53.383Z,101163.27
2019-05-06T22:17:17.231Z,101165.80
2019-05-06T22:22:42.588Z,101161.95
2019-05-06T22:28:07.605Z,101158.84
2019-05-06T22:33:32.527Z,101159.86
2019-05-06T22:38:57.152Z,101152.66
2019-05-06T22:44:22.812Z,101149.58
2019-05-06T22:49:46.599Z,101144.34
2019-05-06T22:55:12.998Z,101143.55
2019-05-06T23:00:39.475Z,101141.55
2019-05-06T23:06:03.938Z,101139.69
2019-05-06T23:11:28.347Z,101153.34
2019-05-06T23:16:52.469Z,101154.91
2019-05-06T23:22:16.837Z,101157.20
2019-05-06T23:27:43.856Z,101156.70
2019-05-06T23:33:06.638Z,101159.20
2019-05-06T23:39:07.997Z,101160.59
2019-05-06T23:45:08.549Z,101158.77
2019-05-06T23:51:08.618Z,101152.17
2019-05-06T23:56:46.934Z,101159.88
